sensor_id;sensor_type;location;lat;lon;timestamp;P1;durP1;ratioP1;P2;durP2;ratioP2
12869;SDS011;6503;48.572;13.460;2023-05-10T00:00:11;5.97;;;3.88;;
12869;SDS011;6503;48.572;13.460;2023-05-10T00:02:39;4.95;;;3.88;;
12869;SDS011;6503;48.572;13.460;2023-05-10T00:05:07;7.32;;;4.55;;
12869;SDS011;6503;48.572;13.460;2023-05-10T00:07:35;5.82;;;4.30;;
12869;SDS011;6503;48.572;13.460;2023-05-10T00:10:03;6.53;;;4.38;;
12869;SDS011;6503;48.572;13.460;2023-05-10T00:12:32;5.28;;;4.10;;
12869;SDS011;6503;48.572;13.460;2023-05-10T00:15:01;7.30;;;4.40;;
12869;SDS011;6503;48.572;13.460;2023-05-10T00:17:29;6.22;;;4.45;;
12869;SDS011;6503;48.572;13.460;2023-05-10T00:19:56;5.97;;;4.15;;
12869;SDS011;6503;48.572;13.460;2023-05-10T00:22:24;6.20;;;4.40;;
12869;SDS011;6503;48.572;13.460;2023-05-10T00:24:52;6.30;;;4.50;;
12869;SDS011;6503;48.572;13.460;2023-05-10T00:27:19;6.82;;;4.32;;
12869;SDS011;6503;48.572;13.460;2023-05-10T00:29:47;7.85;;;4.82;;
12869;SDS011;6503;48.572;13.460;2023-05-10T00:32:15;6.85;;;4.15;;
12869;SDS011;6503;48.572;13.460;2023-05-10T00:34:43;5.75;;;4.13;;
12869;SDS011;6503;48.572;13.460;2023-05-10T00:37:11;8.85;;;4.38;;
12869;SDS011;6503;48.572;13.460;2023-05-10T00:39:38;6.85;;;4.55;;
12869;SDS011;6503;48.572;13.460;2023-05-10T00:42:07;6.40;;;4.60;;
12869;SDS011;6503;48.572;13.460;2023-05-10T00:44:35;5.87;;;4.47;;
12869;SDS011;6503;48.572;13.460;2023-05-10T00:47:03;4.95;;;4.22;;
12869;SDS011;6503;48.572;13.460;2023-05-10T00:49:32;4.68;;;4.25;;
12869;SDS011;6503;48.572;13.460;2023-05-10T00:51:59;6.90;;;4.43;;
12869;SDS011;6503;48.572;13.460;2023-05-10T00:54:28;6.35;;;4.55;;
12869;SDS011;6503;48.572;13.460;2023-05-10T00:56:56;7.07;;;4.85;;
12869;SDS011;6503;48.572;13.460;2023-05-10T00:59:24;5.32;;;4.35;;
12869;SDS011;6503;48.572;13.460;2023-05-10T01:01:55;5.20;;;4.63;;
12869;SDS011;6503;48.572;13.460;2023-05-10T01:04:22;7.53;;;4.63;;
12869;SDS011;6503;48.572;13.460;2023-05-10T01:06:52;5.57;;;4.40;;
12869;SDS011;6503;48.572;13.460;2023-05-10T01:09:20;6.30;;;4.97;;
12869;SDS011;6503;48.572;13.460;2023-05-10T01:11:48;8.77;;;4.15;;
12869;SDS011;6503;48.572;13.460;2023-05-10T01:14:17;6.10;;;4.25;;
12869;SDS011;6503;48.572;13.460;2023-05-10T01:16:45;6.40;;;4.15;;
12869;SDS011;6503;48.572;13.460;2023-05-10T01:19:17;8.18;;;4.97;;
12869;SDS011;6503;48.572;13.460;2023-05-10T01:21:48;5.80;;;4.32;;
12869;SDS011;6503;48.572;13.460;2023-05-10T01:24:32;6.90;;;4.70;;
12869;SDS011;6503;48.572;13.460;2023-05-10T01:27:14;5.78;;;4.68;;
12869;SDS011;6503;48.572;13.460;2023-05-10T01:30:01;7.40;;;4.60;;
12869;SDS011;6503;48.572;13.460;2023-05-10T01:32:36;8.73;;;4.65;;
12869;SDS011;6503;48.572;13.460;2023-05-10T01:35:05;5.47;;;4.53;;
12869;SDS011;6503;48.572;13.460;2023-05-10T01:37:36;6.03;;;4.85;;
12869;SDS011;6503;48.572;13.460;2023-05-10T01:40:08;6.63;;;4.63;;
12869;SDS011;6503;48.572;13.460;2023-05-10T01:42:39;6.05;;;4.43;;
12869;SDS011;6503;48.572;13.460;2023-05-10T01:45:11;6.40;;;5.05;;
12869;SDS011;6503;48.572;13.460;2023-05-10T01:47:43;5.97;;;4.68;;
12869;SDS011;6503;48.572;13.460;2023-05-10T01:52:41;5.63;;;4.30;;
12869;SDS011;6503;48.572;13.460;2023-05-10T01:55:11;7.55;;;4.22;;
12869;SDS011;6503;48.572;13.460;2023-05-10T01:57:42;6.78;;;4.55;;
12869;SDS011;6503;48.572;13.460;2023-05-10T02:00:10;6.10;;;4.40;;
12869;SDS011;6503;48.572;13.460;2023-05-10T02:02:39;8.30;;;4.57;;
12869;SDS011;6503;48.572;13.460;2023-05-10T02:05:09;5.40;;;4.25;;
12869;SDS011;6503;48.572;13.460;2023-05-10T02:07:39;7.97;;;4.68;;
12869;SDS011;6503;48.572;13.460;2023-05-10T02:10:08;8.95;;;5.03;;
12869;SDS011;6503;48.572;13.460;2023-05-10T02:12:36;6.38;;;4.30;;
12869;SDS011;6503;48.572;13.460;2023-05-10T02:15:05;6.78;;;4.70;;
12869;SDS011;6503;48.572;13.460;2023-05-10T02:17:34;9.00;;;4.77;;
12869;SDS011;6503;48.572;13.460;2023-05-10T02:20:03;6.82;;;4.88;;
12869;SDS011;6503;48.572;13.460;2023-05-10T02:22:32;8.13;;;4.85;;
12869;SDS011;6503;48.572;13.460;2023-05-10T02:25:00;8.10;;;4.45;;
12869;SDS011;6503;48.572;13.460;2023-05-10T02:27:30;5.93;;;4.50;;
12869;SDS011;6503;48.572;13.460;2023-05-10T02:29:58;6.80;;;4.68;;
12869;SDS011;6503;48.572;13.460;2023-05-10T02:32:26;8.75;;;5.03;;
12869;SDS011;6503;48.572;13.460;2023-05-10T02:34:54;6.43;;;4.75;;
12869;SDS011;6503;48.572;13.460;2023-05-10T02:37:22;6.65;;;4.55;;
12869;SDS011;6503;48.572;13.460;2023-05-10T02:39:52;5.55;;;4.90;;
12869;SDS011;6503;48.572;13.460;2023-05-10T02:42:22;7.47;;;4.93;;
12869;SDS011;6503;48.572;13.460;2023-05-10T02:44:52;7.45;;;4.50;;
12869;SDS011;6503;48.572;13.460;2023-05-10T02:47:20;7.15;;;4.85;;
12869;SDS011;6503;48.572;13.460;2023-05-10T02:49:47;5.95;;;4.60;;
12869;SDS011;6503;48.572;13.460;2023-05-10T02:52:19;6.93;;;4.95;;
12869;SDS011;6503;48.572;13.460;2023-05-10T02:54:49;7.30;;;4.88;;
12869;SDS011;6503;48.572;13.460;2023-05-10T02:57:21;7.40;;;5.05;;
12869;SDS011;6503;48.572;13.460;2023-05-10T02:59:49;6.20;;;4.57;;
12869;SDS011;6503;48.572;13.460;2023-05-10T03:04:46;6.60;;;4.38;;
12869;SDS011;6503;48.572;13.460;2023-05-10T03:07:14;6.63;;;5.13;;
12869;SDS011;6503;48.572;13.460;2023-05-10T03:09:44;7.32;;;5.28;;
12869;SDS011;6503;48.572;13.460;2023-05-10T03:12:14;8.65;;;5.72;;
12869;SDS011;6503;48.572;13.460;2023-05-10T03:14:49;7.70;;;5.03;;
12869;SDS011;6503;48.572;13.460;2023-05-10T03:17:22;7.45;;;4.93;;
12869;SDS011;6503;48.572;13.460;2023-05-10T03:19:52;8.65;;;5.32;;
12869;SDS011;6503;48.572;13.460;2023-05-10T03:22:21;5.30;;;4.70;;
12869;SDS011;6503;48.572;13.460;2023-05-10T03:24:53;7.68;;;5.20;;
12869;SDS011;6503;48.572;13.460;2023-05-10T03:27:21;9.02;;;6.57;;
12869;SDS011;6503;48.572;13.460;2023-05-10T03:29:53;7.72;;;5.32;;
12869;SDS011;6503;48.572;13.460;2023-05-10T03:32:21;7.00;;;4.75;;
12869;SDS011;6503;48.572;13.460;2023-05-10T03:34:49;8.85;;;5.10;;
12869;SDS011;6503;48.572;13.460;2023-05-10T03:37:16;6.63;;;5.32;;
12869;SDS011;6503;48.572;13.460;2023-05-10T03:39:44;6.30;;;5.68;;
12869;SDS011;6503;48.572;13.460;2023-05-10T03:42:12;8.18;;;5.50;;
12869;SDS011;6503;48.572;13.460;2023-05-10T03:44:39;8.23;;;5.63;;
12869;SDS011;6503;48.572;13.460;2023-05-10T03:47:11;8.80;;;5.05;;
12869;SDS011;6503;48.572;13.460;2023-05-10T03:49:38;6.97;;;5.43;;
12869;SDS011;6503;48.572;13.460;2023-05-10T03:52:06;7.03;;;4.75;;
12869;SDS011;6503;48.572;13.460;2023-05-10T03:54:33;8.18;;;5.20;;
12869;SDS011;6503;48.572;13.460;2023-05-10T03:57:01;5.82;;;4.75;;
12869;SDS011;6503;48.572;13.460;2023-05-10T03:59:29;8.35;;;4.95;;
12869;SDS011;6503;48.572;13.460;2023-05-10T04:01:57;8.10;;;5.45;;
12869;SDS011;6503;48.572;13.460;2023-05-10T04:04:26;8.90;;;5.18;;
12869;SDS011;6503;48.572;13.460;2023-05-10T04:06:53;9.63;;;5.57;;
12869;SDS011;6503;48.572;13.460;2023-05-10T04:09:21;6.75;;;5.55;;
12869;SDS011;6503;48.572;13.460;2023-05-10T04:11:48;10.52;;;5.40;;
12869;SDS011;6503;48.572;13.460;2023-05-10T04:14:16;6.88;;;5.45;;
12869;SDS011;6503;48.572;13.460;2023-05-10T04:16:44;5.93;;;4.93;;
12869;SDS011;6503;48.572;13.460;2023-05-10T04:19:11;6.20;;;5.15;;
12869;SDS011;6503;48.572;13.460;2023-05-10T04:21:40;9.95;;;5.68;;
12869;SDS011;6503;48.572;13.460;2023-05-10T04:24:08;6.25;;;5.38;;
12869;SDS011;6503;48.572;13.460;2023-05-10T04:26:35;12.98;;;5.53;;
12869;SDS011;6503;48.572;13.460;2023-05-10T04:29:03;6.97;;;5.20;;
12869;SDS011;6503;48.572;13.460;2023-05-10T04:31:30;6.05;;;5.32;;
12869;SDS011;6503;48.572;13.460;2023-05-10T04:33:57;9.00;;;5.78;;
12869;SDS011;6503;48.572;13.460;2023-05-10T04:36:25;9.27;;;5.63;;
12869;SDS011;6503;48.572;13.460;2023-05-10T04:38:54;7.80;;;5.47;;
12869;SDS011;6503;48.572;13.460;2023-05-10T04:41:21;8.67;;;5.77;;
12869;SDS011;6503;48.572;13.460;2023-05-10T04:43:50;10.07;;;5.88;;
12869;SDS011;6503;48.572;13.460;2023-05-10T04:46:17;7.53;;;5.35;;
12869;SDS011;6503;48.572;13.460;2023-05-10T04:48:45;9.88;;;6.43;;
12869;SDS011;6503;48.572;13.460;2023-05-10T04:51:13;11.50;;;6.50;;
12869;SDS011;6503;48.572;13.460;2023-05-10T04:53:41;9.50;;;6.32;;
12869;SDS011;6503;48.572;13.460;2023-05-10T04:56:10;8.15;;;6.60;;
12869;SDS011;6503;48.572;13.460;2023-05-10T04:58:37;10.18;;;6.80;;
12869;SDS011;6503;48.572;13.460;2023-05-10T05:01:05;11.90;;;7.70;;
12869;SDS011;6503;48.572;13.460;2023-05-10T05:03:33;9.85;;;8.30;;
12869;SDS011;6503;48.572;13.460;2023-05-10T05:06:06;11.10;;;8.30;;
12869;SDS011;6503;48.572;13.460;2023-05-10T05:08:35;12.93;;;8.38;;
12869;SDS011;6503;48.572;13.460;2023-05-10T05:11:02;11.88;;;8.50;;
12869;SDS011;6503;48.572;13.460;2023-05-10T05:13:31;11.18;;;7.53;;
12869;SDS011;6503;48.572;13.460;2023-05-10T05:16:00;12.13;;;8.45;;
12869;SDS011;6503;48.572;13.460;2023-05-10T05:18:27;14.43;;;9.90;;
12869;SDS011;6503;48.572;13.460;2023-05-10T05:20:55;14.38;;;8.32;;
12869;SDS011;6503;48.572;13.460;2023-05-10T05:23:23;14.25;;;9.90;;
12869;SDS011;6503;48.572;13.460;2023-05-10T05:25:51;13.13;;;9.00;;
12869;SDS011;6503;48.572;13.460;2023-05-10T05:28:19;11.90;;;8.48;;
12869;SDS011;6503;48.572;13.460;2023-05-10T05:30:50;13.48;;;9.93;;
12869;SDS011;6503;48.572;13.460;2023-05-10T05:33:18;15.27;;;11.35;;
12869;SDS011;6503;48.572;13.460;2023-05-10T05:35:45;14.40;;;10.02;;
12869;SDS011;6503;48.572;13.460;2023-05-10T05:38:15;14.50;;;10.25;;
12869;SDS011;6503;48.572;13.460;2023-05-10T05:40:44;13.07;;;9.88;;
12869;SDS011;6503;48.572;13.460;2023-05-10T05:43:12;12.02;;;8.25;;
12869;SDS011;6503;48.572;13.460;2023-05-10T05:45:40;14.38;;;10.32;;
12869;SDS011;6503;48.572;13.460;2023-05-10T05:48:09;12.30;;;8.88;;
12869;SDS011;6503;48.572;13.460;2023-05-10T05:50:39;15.00;;;10.48;;
12869;SDS011;6503;48.572;13.460;2023-05-10T05:53:07;17.30;;;11.43;;
12869;SDS011;6503;48.572;13.460;2023-05-10T05:55:36;16.80;;;11.23;;
12869;SDS011;6503;48.572;13.460;2023-05-10T05:58:04;18.58;;;12.13;;
12869;SDS011;6503;48.572;13.460;2023-05-10T06:00:32;16.08;;;11.18;;
12869;SDS011;6503;48.572;13.460;2023-05-10T06:03:00;16.60;;;11.23;;
12869;SDS011;6503;48.572;13.460;2023-05-10T06:05:32;16.05;;;11.38;;
12869;SDS011;6503;48.572;13.460;2023-05-10T06:08:00;15.45;;;10.75;;
12869;SDS011;6503;48.572;13.460;2023-05-10T06:10:35;13.75;;;11.00;;
12869;SDS011;6503;48.572;13.460;2023-05-10T06:13:22;13.52;;;10.90;;
12869;SDS011;6503;48.572;13.460;2023-05-10T06:15:56;13.68;;;10.23;;
12869;SDS011;6503;48.572;13.460;2023-05-10T06:18:28;13.68;;;10.30;;
12869;SDS011;6503;48.572;13.460;2023-05-10T06:21:02;15.88;;;10.35;;
12869;SDS011;6503;48.572;13.460;2023-05-10T06:23:45;16.50;;;10.23;;
12869;SDS011;6503;48.572;13.460;2023-05-10T06:26:15;16.70;;;11.18;;
12869;SDS011;6503;48.572;13.460;2023-05-10T06:28:44;16.67;;;11.50;;
12869;SDS011;6503;48.572;13.460;2023-05-10T06:31:14;19.80;;;12.15;;
12869;SDS011;6503;48.572;13.460;2023-05-10T06:33:48;14.10;;;10.88;;
12869;SDS011;6503;48.572;13.460;2023-05-10T06:36:32;14.27;;;9.60;;
12869;SDS011;6503;48.572;13.460;2023-05-10T06:39:01;17.58;;;11.65;;
12869;SDS011;6503;48.572;13.460;2023-05-10T06:41:38;14.20;;;10.50;;
12869;SDS011;6503;48.572;13.460;2023-05-10T06:44:13;12.45;;;9.07;;
12869;SDS011;6503;48.572;13.460;2023-05-10T06:46:58;13.38;;;9.88;;
12869;SDS011;6503;48.572;13.460;2023-05-10T06:49:30;15.18;;;10.38;;
12869;SDS011;6503;48.572;13.460;2023-05-10T06:52:03;16.35;;;11.50;;
12869;SDS011;6503;48.572;13.460;2023-05-10T06:54:31;14.48;;;10.45;;
12869;SDS011;6503;48.572;13.460;2023-05-10T06:57:39;16.88;;;10.63;;
12869;SDS011;6503;48.572;13.460;2023-05-10T07:00:20;15.25;;;10.02;;
12869;SDS011;6503;48.572;13.460;2023-05-10T07:02:48;16.83;;;10.55;;
12869;SDS011;6503;48.572;13.460;2023-05-10T07:05:16;15.27;;;10.35;;
12869;SDS011;6503;48.572;13.460;2023-05-10T07:07:49;14.02;;;10.18;;
12869;SDS011;6503;48.572;13.460;2023-05-10T07:10:21;15.57;;;10.95;;
12869;SDS011;6503;48.572;13.460;2023-05-10T07:12:49;15.13;;;10.18;;
12869;SDS011;6503;48.572;13.460;2023-05-10T07:15:22;17.88;;;9.90;;
12869;SDS011;6503;48.572;13.460;2023-05-10T07:18:10;14.15;;;10.70;;
12869;SDS011;6503;48.572;13.460;2023-05-10T07:20:37;19.00;;;10.85;;
12869;SDS011;6503;48.572;13.460;2023-05-10T07:23:07;14.70;;;9.73;;
12869;SDS011;6503;48.572;13.460;2023-05-10T07:25:35;14.52;;;9.43;;
12869;SDS011;6503;48.572;13.460;2023-05-10T07:28:03;15.18;;;10.57;;
12869;SDS011;6503;48.572;13.460;2023-05-10T07:30:30;14.10;;;10.10;;
12869;SDS011;6503;48.572;13.460;2023-05-10T07:32:58;13.95;;;9.88;;
12869;SDS011;6503;48.572;13.460;2023-05-10T07:35:25;14.75;;;10.52;;
12869;SDS011;6503;48.572;13.460;2023-05-10T07:37:54;16.40;;;10.30;;
12869;SDS011;6503;48.572;13.460;2023-05-10T07:40:26;15.65;;;10.75;;
12869;SDS011;6503;48.572;13.460;2023-05-10T07:42:54;15.87;;;11.30;;
12869;SDS011;6503;48.572;13.460;2023-05-10T07:45:24;16.70;;;11.45;;
12869;SDS011;6503;48.572;13.460;2023-05-10T07:47:52;13.18;;;9.60;;
12869;SDS011;6503;48.572;13.460;2023-05-10T07:50:20;16.48;;;11.00;;
12869;SDS011;6503;48.572;13.460;2023-05-10T07:52:49;12.93;;;10.23;;
12869;SDS011;6503;48.572;13.460;2023-05-10T07:55:19;12.98;;;9.90;;
12869;SDS011;6503;48.572;13.460;2023-05-10T07:57:51;15.48;;;11.18;;
12869;SDS011;6503;48.572;13.460;2023-05-10T08:00:23;17.75;;;11.82;;
12869;SDS011;6503;48.572;13.460;2023-05-10T08:02:50;16.55;;;10.80;;
12869;SDS011;6503;48.572;13.460;2023-05-10T08:05:18;13.88;;;10.32;;
12869;SDS011;6503;48.572;13.460;2023-05-10T08:07:46;14.77;;;10.30;;
12869;SDS011;6503;48.572;13.460;2023-05-10T08:10:16;13.85;;;10.57;;
12869;SDS011;6503;48.572;13.460;2023-05-10T08:12:50;14.00;;;11.15;;
12869;SDS011;6503;48.572;13.460;2023-05-10T08:15:19;14.48;;;10.63;;
12869;SDS011;6503;48.572;13.460;2023-05-10T08:17:46;12.87;;;10.00;;
12869;SDS011;6503;48.572;13.460;2023-05-10T08:20:15;14.75;;;10.55;;
12869;SDS011;6503;48.572;13.460;2023-05-10T08:22:44;14.90;;;11.18;;
12869;SDS011;6503;48.572;13.460;2023-05-10T08:25:14;14.93;;;10.65;;
12869;SDS011;6503;48.572;13.460;2023-05-10T08:27:42;14.30;;;10.27;;
12869;SDS011;6503;48.572;13.460;2023-05-10T08:43:53;12.43;;;9.63;;
12869;SDS011;6503;48.572;13.460;2023-05-10T08:46:26;14.95;;;10.23;;
12869;SDS011;6503;48.572;13.460;2023-05-10T08:48:57;13.20;;;10.07;;
12869;SDS011;6503;48.572;13.460;2023-05-10T08:51:29;13.95;;;11.18;;
12869;SDS011;6503;48.572;13.460;2023-05-10T08:54:00;15.23;;;10.98;;
12869;SDS011;6503;48.572;13.460;2023-05-10T08:56:35;14.82;;;10.93;;
12869;SDS011;6503;48.572;13.460;2023-05-10T08:59:04;13.27;;;10.32;;
12869;SDS011;6503;48.572;13.460;2023-05-10T09:01:32;14.57;;;11.25;;
12869;SDS011;6503;48.572;13.460;2023-05-10T09:06:36;13.40;;;10.60;;
12869;SDS011;6503;48.572;13.460;2023-05-10T09:09:04;14.30;;;10.77;;
12869;SDS011;6503;48.572;13.460;2023-05-10T09:11:35;14.30;;;10.13;;
12869;SDS011;6503;48.572;13.460;2023-05-10T09:14:16;14.32;;;11.07;;
12869;SDS011;6503;48.572;13.460;2023-05-10T09:16:51;13.50;;;10.45;;
12869;SDS011;6503;48.572;13.460;2023-05-10T09:19:20;16.88;;;11.98;;
12869;SDS011;6503;48.572;13.460;2023-05-10T09:22:01;16.85;;;12.95;;
12869;SDS011;6503;48.572;13.460;2023-05-10T09:24:29;17.98;;;13.07;;
12869;SDS011;6503;48.572;13.460;2023-05-10T09:26:57;18.00;;;13.02;;
12869;SDS011;6503;48.572;13.460;2023-05-10T09:29:26;13.30;;;11.18;;
12869;SDS011;6503;48.572;13.460;2023-05-10T09:32:05;14.65;;;11.60;;
12869;SDS011;6503;48.572;13.460;2023-05-10T09:34:33;15.50;;;11.68;;
12869;SDS011;6503;48.572;13.460;2023-05-10T09:37:05;13.60;;;10.43;;
12869;SDS011;6503;48.572;13.460;2023-05-10T09:39:33;14.55;;;11.88;;
12869;SDS011;6503;48.572;13.460;2023-05-10T09:42:02;15.18;;;11.63;;
12869;SDS011;6503;48.572;13.460;2023-05-10T09:44:32;15.63;;;12.05;;
12869;SDS011;6503;48.572;13.460;2023-05-10T09:47:00;14.97;;;11.70;;
12869;SDS011;6503;48.572;13.460;2023-05-10T09:49:28;15.80;;;11.52;;
12869;SDS011;6503;48.572;13.460;2023-05-10T09:51:59;17.35;;;12.80;;
12869;SDS011;6503;48.572;13.460;2023-05-10T09:54:27;16.45;;;11.65;;
12869;SDS011;6503;48.572;13.460;2023-05-10T09:56:55;18.02;;;12.73;;
12869;SDS011;6503;48.572;13.460;2023-05-10T09:59:23;16.45;;;12.05;;
12869;SDS011;6503;48.572;13.460;2023-05-10T10:01:53;17.25;;;12.57;;
12869;SDS011;6503;48.572;13.460;2023-05-10T10:04:22;17.75;;;11.68;;
12869;SDS011;6503;48.572;13.460;2023-05-10T10:07:03;14.50;;;10.10;;
12869;SDS011;6503;48.572;13.460;2023-05-10T10:09:34;12.38;;;8.38;;
12869;SDS011;6503;48.572;13.460;2023-05-10T10:12:02;14.05;;;9.80;;
12869;SDS011;6503;48.572;13.460;2023-05-10T10:14:31;12.60;;;9.57;;
12869;SDS011;6503;48.572;13.460;2023-05-10T10:17:03;11.43;;;8.77;;
12869;SDS011;6503;48.572;13.460;2023-05-10T10:19:34;14.27;;;9.32;;
12869;SDS011;6503;48.572;13.460;2023-05-10T10:22:07;10.57;;;8.20;;
12869;SDS011;6503;48.572;13.460;2023-05-10T10:24:37;10.45;;;7.35;;
12869;SDS011;6503;48.572;13.460;2023-05-10T10:27:11;9.45;;;5.82;;
12869;SDS011;6503;48.572;13.460;2023-05-10T10:29:42;4.05;;;2.30;;
12869;SDS011;6503;48.572;13.460;2023-05-10T10:32:19;0.70;;;0.70;;
12869;SDS011;6503;48.572;13.460;2023-05-10T10:34:52;0.38;;;0.38;;
12869;SDS011;6503;48.572;13.460;2023-05-10T10:37:21;0.10;;;0.10;;
12869;SDS011;6503;48.572;13.460;2023-05-10T10:39:50;1.17;;;1.08;;
12869;SDS011;6503;48.572;13.460;2023-05-10T10:45:12;0.52;;;0.52;;
12869;SDS011;6503;48.572;13.460;2023-05-10T10:47:42;0.20;;;0.20;;
12869;SDS011;6503;48.572;13.460;2023-05-10T10:50:10;4.50;;;1.33;;
12869;SDS011;6503;48.572;13.460;2023-05-10T10:52:38;1.00;;;1.00;;
12869;SDS011;6503;48.572;13.460;2023-05-10T10:55:06;0.10;;;0.10;;
12869;SDS011;6503;48.572;13.460;2023-05-10T10:57:42;0.35;;;0.35;;
12869;SDS011;6503;48.572;13.460;2023-05-10T11:00:22;0.40;;;0.40;;
12869;SDS011;6503;48.572;13.460;2023-05-10T11:02:53;0.75;;;0.30;;
12869;SDS011;6503;48.572;13.460;2023-05-10T11:07:51;0.73;;;0.73;;
12869;SDS011;6503;48.572;13.460;2023-05-10T11:10:26;0.30;;;0.30;;
12869;SDS011;6503;48.572;13.460;2023-05-10T11:12:58;2.95;;;0.85;;
12869;SDS011;6503;48.572;13.460;2023-05-10T11:15:30;1.55;;;1.45;;
12869;SDS011;6503;48.572;13.460;2023-05-10T11:18:15;0.65;;;0.65;;
12869;SDS011;6503;48.572;13.460;2023-05-10T11:20:52;0.38;;;0.38;;
12869;SDS011;6503;48.572;13.460;2023-05-10T11:23:33;0.82;;;0.82;;
12869;SDS011;6503;48.572;13.460;2023-05-10T11:26:23;0.50;;;0.50;;
12869;SDS011;6503;48.572;13.460;2023-05-10T11:31:26;0.50;;;0.50;;
12869;SDS011;6503;48.572;13.460;2023-05-10T11:34:09;0.30;;;0.30;;
12869;SDS011;6503;48.572;13.460;2023-05-10T11:36:39;0.77;;;0.77;;
12869;SDS011;6503;48.572;13.460;2023-05-10T11:39:06;0.32;;;0.32;;
12869;SDS011;6503;48.572;13.460;2023-05-10T11:41:50;0.63;;;0.63;;
12869;SDS011;6503;48.572;13.460;2023-05-10T11:44:20;0.73;;;0.73;;
12869;SDS011;6503;48.572;13.460;2023-05-10T11:46:48;0.25;;;0.25;;
12869;SDS011;6503;48.572;13.460;2023-05-10T11:49:25;0.45;;;0.45;;
12869;SDS011;6503;48.572;13.460;2023-05-10T11:52:07;0.60;;;0.60;;
12869;SDS011;6503;48.572;13.460;2023-05-10T11:54:36;0.93;;;0.93;;
12869;SDS011;6503;48.572;13.460;2023-05-10T11:57:19;0.30;;;0.30;;
12869;SDS011;6503;48.572;13.460;2023-05-10T12:02:41;0.20;;;0.20;;
12869;SDS011;6503;48.572;13.460;2023-05-10T12:08:43;0.52;;;0.52;;
12869;SDS011;6503;48.572;13.460;2023-05-10T12:11:26;0.57;;;0.57;;
12869;SDS011;6503;48.572;13.460;2023-05-10T12:14:08;0.85;;;0.85;;
12869;SDS011;6503;48.572;13.460;2023-05-10T12:19:11;0.30;;;0.30;;
12869;SDS011;6503;48.572;13.460;2023-05-10T12:21:40;0.35;;;0.35;;
12869;SDS011;6503;48.572;13.460;2023-05-10T12:27:17;0.77;;;0.77;;
12869;SDS011;6503;48.572;13.460;2023-05-10T12:29:59;2.38;;;1.50;;
12869;SDS011;6503;48.572;13.460;2023-05-10T12:32:47;3.33;;;0.98;;
12869;SDS011;6503;48.572;13.460;2023-05-10T12:35:30;0.10;;;0.10;;
12869;SDS011;6503;48.572;13.460;2023-05-10T12:41:06;0.70;;;0.70;;
12869;SDS011;6503;48.572;13.460;2023-05-10T12:46:51;0.85;;;0.85;;
12869;SDS011;6503;48.572;13.460;2023-05-10T12:49:41;0.30;;;0.22;;
12869;SDS011;6503;48.572;13.460;2023-05-10T12:52:22;0.47;;;0.47;;
12869;SDS011;6503;48.572;13.460;2023-05-10T12:55:06;0.60;;;0.60;;
12869;SDS011;6503;48.572;13.460;2023-05-10T12:57:42;0.90;;;0.90;;
12869;SDS011;6503;48.572;13.460;2023-05-10T13:06:18;1.27;;;1.00;;
12869;SDS011;6503;48.572;13.460;2023-05-10T13:08:50;0.55;;;0.55;;
12869;SDS011;6503;48.572;13.460;2023-05-10T13:11:32;0.10;;;0.10;;
12869;SDS011;6503;48.572;13.460;2023-05-10T13:14:14;0.20;;;0.20;;
12869;SDS011;6503;48.572;13.460;2023-05-10T13:16:45;0.38;;;0.35;;
12869;SDS011;6503;48.572;13.460;2023-05-10T13:19:21;0.70;;;0.70;;
12869;SDS011;6503;48.572;13.460;2023-05-10T13:22:04;0.10;;;0.10;;
12869;SDS011;6503;48.572;13.460;2023-05-10T13:24:33;0.32;;;0.32;;
12869;SDS011;6503;48.572;13.460;2023-05-10T13:27:04;0.85;;;0.40;;
12869;SDS011;6503;48.572;13.460;2023-05-10T13:32:16;1.08;;;0.63;;
12869;SDS011;6503;48.572;13.460;2023-05-10T13:35:00;0.73;;;0.73;;
12869;SDS011;6503;48.572;13.460;2023-05-10T13:40:23;0.20;;;0.20;;
12869;SDS011;6503;48.572;13.460;2023-05-10T13:42:54;0.68;;;0.68;;
12869;SDS011;6503;48.572;13.460;2023-05-10T13:45:37;0.30;;;0.30;;
12869;SDS011;6503;48.572;13.460;2023-05-10T13:48:05;1.27;;;1.20;;
12869;SDS011;6503;48.572;13.460;2023-05-10T13:50:50;0.10;;;0.10;;
12869;SDS011;6503;48.572;13.460;2023-05-10T13:53:31;0.20;;;0.20;;
12869;SDS011;6503;48.572;13.460;2023-05-10T13:56:17;0.20;;;0.20;;
12869;SDS011;6503;48.572;13.460;2023-05-10T13:58:54;0.13;;;0.13;;
12869;SDS011;6503;48.572;13.460;2023-05-10T14:01:35;0.17;;;0.17;;
12869;SDS011;6503;48.572;13.460;2023-05-10T14:04:18;0.30;;;0.30;;
12869;SDS011;6503;48.572;13.460;2023-05-10T14:06:51;0.90;;;0.90;;
12869;SDS011;6503;48.572;13.460;2023-05-10T14:09:23;0.63;;;0.63;;
12869;SDS011;6503;48.572;13.460;2023-05-10T14:15:08;0.22;;;0.22;;
12869;SDS011;6503;48.572;13.460;2023-05-10T14:17:39;0.30;;;0.30;;
12869;SDS011;6503;48.572;13.460;2023-05-10T14:20:07;0.20;;;0.20;;
12869;SDS011;6503;48.572;13.460;2023-05-10T14:22:35;0.93;;;0.77;;
12869;SDS011;6503;48.572;13.460;2023-05-10T14:25:05;0.20;;;0.20;;
12869;SDS011;6503;48.572;13.460;2023-05-10T14:27:33;0.82;;;0.75;;
12869;SDS011;6503;48.572;13.460;2023-05-10T14:30:02;0.17;;;0.17;;
12869;SDS011;6503;48.572;13.460;2023-05-10T14:32:30;0.30;;;0.30;;
12869;SDS011;6503;48.572;13.460;2023-05-10T14:34:58;0.10;;;0.10;;
12869;SDS011;6503;48.572;13.460;2023-05-10T14:37:26;1.00;;;0.50;;
12869;SDS011;6503;48.572;13.460;2023-05-10T14:39:53;0.10;;;0.10;;
12869;SDS011;6503;48.572;13.460;2023-05-10T14:42:21;0.45;;;0.45;;
12869;SDS011;6503;48.572;13.460;2023-05-10T14:44:48;0.55;;;0.55;;
12869;SDS011;6503;48.572;13.460;2023-05-10T14:47:18;0.28;;;0.28;;
12869;SDS011;6503;48.572;13.460;2023-05-10T14:49:45;0.05;;;0.05;;
12869;SDS011;6503;48.572;13.460;2023-05-10T14:52:14;0.10;;;0.10;;
12869;SDS011;6503;48.572;13.460;2023-05-10T14:54:42;0.30;;;0.30;;
12869;SDS011;6503;48.572;13.460;2023-05-10T14:57:13;0.30;;;0.30;;
12869;SDS011;6503;48.572;13.460;2023-05-10T14:59:41;0.13;;;0.13;;
12869;SDS011;6503;48.572;13.460;2023-05-10T15:02:11;0.28;;;0.28;;
12869;SDS011;6503;48.572;13.460;2023-05-10T15:04:41;0.10;;;0.10;;
12869;SDS011;6503;48.572;13.460;2023-05-10T15:07:08;0.35;;;0.30;;
12869;SDS011;6503;48.572;13.460;2023-05-10T15:09:39;0.20;;;0.20;;
12869;SDS011;6503;48.572;13.460;2023-05-10T15:12:12;0.20;;;0.20;;
12869;SDS011;6503;48.572;13.460;2023-05-10T15:14:40;2.38;;;0.43;;
12869;SDS011;6503;48.572;13.460;2023-05-10T15:17:07;0.30;;;0.30;;
12869;SDS011;6503;48.572;13.460;2023-05-10T15:19:35;0.22;;;0.22;;
12869;SDS011;6503;48.572;13.460;2023-05-10T15:22:05;0.10;;;0.10;;
12869;SDS011;6503;48.572;13.460;2023-05-10T15:24:33;0.52;;;0.52;;
12869;SDS011;6503;48.572;13.460;2023-05-10T15:27:00;0.10;;;0.10;;
12869;SDS011;6503;48.572;13.460;2023-05-10T15:29:28;0.20;;;0.20;;
12869;SDS011;6503;48.572;13.460;2023-05-10T15:31:56;0.30;;;0.30;;
12869;SDS011;6503;48.572;13.460;2023-05-10T15:34:25;0.20;;;0.20;;
12869;SDS011;6503;48.572;13.460;2023-05-10T15:36:53;0.20;;;0.20;;
12869;SDS011;6503;48.572;13.460;2023-05-10T15:42:05;0.35;;;0.35;;
12869;SDS011;6503;48.572;13.460;2023-05-10T15:44:36;3.30;;;0.30;;
12869;SDS011;6503;48.572;13.460;2023-05-10T15:47:05;0.17;;;0.17;;
12869;SDS011;6503;48.572;13.460;2023-05-10T15:49:33;1.52;;;0.30;;
12869;SDS011;6503;48.572;13.460;2023-05-10T15:52:03;0.45;;;0.45;;
12869;SDS011;6503;48.572;13.460;2023-05-10T15:54:31;0.47;;;0.43;;
12869;SDS011;6503;48.572;13.460;2023-05-10T15:56:59;0.63;;;0.63;;
12869;SDS011;6503;48.572;13.460;2023-05-10T15:59:29;0.28;;;0.28;;
12869;SDS011;6503;48.572;13.460;2023-05-10T16:01:56;0.73;;;0.73;;
12869;SDS011;6503;48.572;13.460;2023-05-10T16:04:28;0.20;;;0.20;;
12869;SDS011;6503;48.572;13.460;2023-05-10T16:06:55;0.20;;;0.20;;